Time,TemperatureF,DewpointF,PressureIn,WindDirection,WindDirectionDegrees,WindSpeedMPH,WindSpeedGustMPH,Humidity,HourlyPrecipIn,Conditions,Clouds,dailyrainin,SoftwareType,DateUTC
2013-05-04 00:02:00,47.5,32.6,30.11,North,9,0.0,0.0,56,0.00,,,0.00,Wunderground v.1.15,2013-05-04 07:02:00,
2013-05-04 00:08:00,47.2,32.3,30.11,North,9,0.0,0.0,56,0.00,,,0.00,Wunderground v.1.15,2013-05-04 07:08:00,
2013-05-04 00:13:00,46.9,32.4,30.10,North,9,0.0,2.0,57,0.00,,,0.00,Wunderground v.1.15,2013-05-04 07:13:00,
2013-05-04 00:19:00,46.7,32.3,30.10,North,9,0.0,2.0,57,0.00,,,0.00,Wunderground v.1.15,2013-05-04 07:19:00,
2013-05-04 00:26:00,46.4,32.4,30.11,North,9,0.0,1.0,58,0.00,,,0.00,Wunderground v.1.15,2013-05-04 07:26:00,
2013-05-04 00:31:00,46.1,32.6,30.11,North,9,0.0,1.0,59,0.00,,,0.00,Wunderground v.1.15,2013-05-04 07:31:00,
2013-05-04 00:37:00,45.4,32.3,30.11,North,9,0.0,1.0,60,0.00,,,0.00,Wunderground v.1.15,2013-05-04 07:37:00,
2013-05-04 00:44:00,44.9,32.7,30.11,North,9,0.0,0.0,62,0.00,,,0.00,Wunderground v.1.15,2013-05-04 07:44:00,
2013-05-04 00:50:00,44.2,32.4,30.11,North,9,0.0,0.0,63,0.00,,,0.00,Wunderground v.1.15,2013-05-04 07:50:00,
2013-05-04 00:55:00,43.9,32.1,30.11,North,9,0.0,3.0,63,0.00,,,0.00,Wunderground v.1.15,2013-05-04 07:55:00,
2013-05-04 01:01:00,44.3,32.1,30.11,North,9,1.0,1.0,62,0.00,,,0.00,Wunderground v.1.15,2013-05-04 08:01:00,
2013-05-04 01:08:00,44.8,32.2,30.10,North,9,0.0,1.0,61,0.00,,,0.00,Wunderground v.1.15,2013-05-04 08:08:00,
2013-05-04 01:13:00,44.9,31.8,30.10,North,9,0.0,1.0,60,0.00,,,0.00,Wunderground v.1.15,2013-05-04 08:13:00,
2013-05-04 01:19:00,44.8,31.8,30.11,North,9,0.0,0.0,60,0.00,,,0.00,Wunderground v.1.15,2013-05-04 08:19:00,
2013-05-04 01:25:00,44.7,31.7,30.10,North,9,0.0,0.0,60,0.00,,,0.00,Wunderground v.1.15,2013-05-04 08:25:00,
2013-05-04 01:32:00,44.4,31.4,30.10,North,9,1.0,1.0,60,0.00,,,0.00,Wunderground v.1.15,2013-05-04 08:32:00,
2013-05-04 01:37:00,44.1,31.5,30.10,North,9,1.0,1.0,61,0.00,,,0.00,Wunderground v.1.15,2013-05-04 08:37:00,
2013-05-04 01:43:00,43.8,31.6,30.09,North,9,0.0,2.0,62,0.00,,,0.00,Wunderground v.1.15,2013-05-04 08:43:00,
2013-05-04 01:50:00,43.3,31.5,30.09,North,9,0.0,0.0,63,0.00,,,0.00,Wunderground v.1.15,2013-05-04 08:50:00,
2013-05-04 01:56:00,42.8,31.5,30.09,North,9,0.0,0.0,64,0.00,,,0.00,Wunderground v.1.15,2013-05-04 08:56:00,
2013-05-04 02:01:00,42.4,31.5,30.09,North,9,0.0,0.0,65,0.00,,,0.00,Wunderground v.1.15,2013-05-04 09:01:00,
2013-05-04 02:07:00,41.8,31.6,30.09,North,9,0.0,0.0,67,0.00,,,0.00,Wunderground v.1.15,2013-05-04 09:07:00,
2013-05-04 02:14:00,41.6,31.4,30.09,North,9,0.0,2.0,67,0.00,,,0.00,Wunderground v.1.15,2013-05-04 09:14:00,
2013-05-04 02:19:00,41.6,31.8,30.09,North,9,1.0,1.0,68,0.00,,,0.00,Wunderground v.1.15,2013-05-04 09:19:00,
2013-05-04 02:25:00,41.5,31.4,30.09,North,9,1.0,4.0,67,0.00,,,0.00,Wunderground v.1.15,2013-05-04 09:25:00,
2013-05-04 02:32:00,41.8,31.3,30.09,North,9,1.0,1.0,66,0.00,,,0.00,Wunderground v.1.15,2013-05-04 09:32:00,
2013-05-04 02:38:00,42.3,31.4,30.09,North,9,0.0,2.0,65,0.00,,,0.00,Wunderground v.1.15,2013-05-04 09:38:00,
2013-05-04 02:43:00,42.2,31.3,30.08,North,9,0.0,0.0,65,0.00,,,0.00,Wunderground v.1.15,2013-05-04 09:43:00,
2013-05-04 02:49:00,41.6,31.1,30.08,North,9,0.0,0.0,66,0.00,,,0.00,Wunderground v.1.15,2013-05-04 09:49:00,
2013-05-04 02:56:00,41.0,30.9,30.08,North,9,1.0,1.0,67,0.00,,,0.00,Wunderground v.1.15,2013-05-04 09:56:00,
2013-05-04 03:02:00,40.7,30.6,30.08,North,9,0.0,0.0,67,0.00,,,0.00,Wunderground v.1.15,2013-05-04 10:02:00,
2013-05-04 03:07:00,40.4,30.7,30.08,North,9,0.0,2.0,68,0.00,,,0.00,Wunderground v.1.15,2013-05-04 10:07:00,
2013-05-04 03:13:00,40.1,30.7,30.08,North,9,1.0,1.0,69,0.00,,,0.00,Wunderground v.1.15,2013-05-04 10:13:00,
2013-05-04 03:20:00,40.0,30.6,30.08,North,9,0.0,1.0,69,0.00,,,0.00,Wunderground v.1.15,2013-05-04 10:20:00,
2013-05-04 03:25:00,39.9,30.5,30.08,North,9,0.0,2.0,69,0.00,,,0.00,Wunderground v.1.15,2013-05-04 10:25:00,
2013-05-04 03:31:00,39.9,30.9,30.08,North,9,0.0,0.0,70,0.00,,,0.00,Wunderground v.1.15,2013-05-04 10:31:00,
2013-05-04 03:37:00,40.0,31.0,30.08,North,9,0.0,2.0,70,0.00,,,0.00,Wunderground v.1.15,2013-05-04 10:37:00,
2013-05-04 03:44:00,40.4,31.0,30.08,North,9,1.0,1.0,69,0.00,,,0.00,Wunderground v.1.15,2013-05-04 10:44:00,
2013-05-04 03:49:00,40.8,31.1,30.07,North,9,1.0,1.0,68,0.00,,,0.00,Wunderground v.1.15,2013-05-04 10:49:00,
2013-05-04 03:55:00,41.0,30.9,30.07,North,9,0.0,1.0,67,0.00,,,0.00,Wunderground v.1.15,2013-05-04 10:55:00,
2013-05-04 04:02:00,41.0,30.9,30.07,North,9,0.0,0.0,67,0.00,,,0.00,Wunderground v.1.15,2013-05-04 11:02:00,
2013-05-04 04:08:00,40.7,30.6,30.07,North,9,0.0,1.0,67,0.00,,,0.00,Wunderground v.1.15,2013-05-04 11:08:00,
2013-05-04 04:13:00,40.5,30.8,30.07,North,9,0.0,0.0,68,0.00,,,0.00,Wunderground v.1.15,2013-05-04 11:13:00,
2013-05-04 04:19:00,40.2,30.5,30.07,North,9,0.0,0.0,68,0.00,,,0.00,Wunderground v.1.15,2013-05-04 11:19:00,
2013-05-04 04:26:00,40.0,30.3,30.07,North,9,0.0,0.0,68,0.00,,,0.00,Wunderground v.1.15,2013-05-04 11:26:00,
2013-05-04 04:31:00,40.4,30.7,30.07,North,9,0.0,0.0,68,0.00,,,0.00,Wunderground v.1.15,2013-05-04 11:31:00,
2013-05-04 04:37:00,40.3,30.9,30.07,North,9,0.0,0.0,69,0.00,,,0.00,Wunderground v.1.15,2013-05-04 11:37:00,
2013-05-04 04:44:00,39.9,30.5,30.07,North,9,0.0,0.0,69,0.00,,,0.00,Wunderground v.1.15,2013-05-04 11:44:00,
2013-05-04 04:50:00,39.6,30.3,30.07,North,9,0.0,0.0,69,0.00,,,0.00,Wunderground v.1.15,2013-05-04 11:50:00,
2013-05-04 04:55:00,39.3,30.3,30.07,North,9,0.0,0.0,70,0.00,,,0.00,Wunderground v.1.15,2013-05-04 11:55:00,
2013-05-04 05:01:00,39.1,30.1,30.07,North,9,0.0,0.0,70,0.00,,,0.00,Wunderground v.1.15,2013-05-04 12:01:00,
2013-05-04 05:08:00,38.8,29.8,30.06,North,9,0.0,0.0,70,0.00,,,0.00,Wunderground v.1.15,2013-05-04 12:08:00,
2013-05-04 05:13:00,38.3,29.7,30.07,North,9,0.0,0.0,71,0.00,,,0.00,Wunderground v.1.15,2013-05-04 12:13:00,
2013-05-04 05:21:00,37.7,29.8,30.07,North,9,0.0,0.0,73,0.00,,,0.00,Wunderground v.1.15,2013-05-04 12:21:00,
2013-05-04 05:30:00,37.2,29.7,30.07,North,9,0.0,0.0,74,0.00,,,0.00,Wunderground v.1.15,2013-05-04 12:30:00,
2013-05-04 05:41:00,37.2,30.0,30.07,North,9,0.0,0.0,75,0.00,,,0.00,Wunderground v.1.15,2013-05-04 12:41:00,
2013-05-04 05:47:00,37.2,29.7,30.07,North,9,1.0,2.0,74,0.00,,,0.00,Wunderground v.1.15,2013-05-04 12:47:00,
2013-05-04 05:54:00,37.2,29.7,30.07,North,9,1.0,1.0,74,0.00,,,0.00,Wunderground v.1.15,2013-05-04 12:54:00,
2013-05-04 06:01:00,37.1,29.6,30.07,North,9,0.0,0.0,74,0.00,,,0.00,Wunderground v.1.15,2013-05-04 13:01:00,
2013-05-04 06:07:00,36.8,29.6,30.07,North,9,0.0,2.0,75,0.00,,,0.00,Wunderground v.1.15,2013-05-04 13:07:00,
2013-05-04 06:14:00,36.6,29.4,30.07,North,9,1.0,2.0,75,0.00,,,0.00,Wunderground v.1.15,2013-05-04 13:14:00,
2013-05-04 06:19:00,36.6,29.7,30.07,North,9,1.0,3.0,76,0.00,,,0.00,Wunderground v.1.15,2013-05-04 13:19:00,
2013-05-04 06:23:00,36.8,29.6,30.07,North,9,1.0,2.0,75,0.00,,,0.00,Wunderground v.1.15,2013-05-04 13:23:00,
2013-05-04 06:29:00,37.1,30.2,30.07,North,9,1.0,2.0,76,0.00,,,0.00,Wunderground v.1.15,2013-05-04 13:29:00,
2013-05-04 06:36:00,37.5,30.0,30.07,North,9,1.0,3.0,74,0.00,,,0.00,Wunderground v.1.15,2013-05-04 13:36:00,
2013-05-04 06:41:00,37.9,30.4,30.07,North,9,1.0,1.0,74,0.00,,,0.00,Wunderground v.1.15,2013-05-04 13:41:00,
2013-05-04 06:47:00,38.4,30.5,30.07,North,9,0.0,1.0,73,0.00,,,0.00,Wunderground v.1.15,2013-05-04 13:47:00,
2013-05-04 06:54:00,39.0,30.7,30.08,North,9,0.0,0.0,72,0.00,,,0.00,Wunderground v.1.15,2013-05-04 13:54:00,
2013-05-04 07:02:00,39.8,31.8,30.08,North,9,0.0,0.0,73,0.00,,,0.00,Wunderground v.1.15,2013-05-04 14:02:00,
2013-05-04 07:07:00,40.8,32.5,30.08,North,9,0.0,0.0,72,0.00,,,0.00,Wunderground v.1.15,2013-05-04 14:07:00,
2013-05-04 07:13:00,42.2,33.5,30.07,North,9,0.0,0.0,71,0.00,,,0.00,Wunderground v.1.15,2013-05-04 14:13:00,
2013-05-04 07:20:00,43.4,34.6,30.07,North,9,0.0,0.0,71,0.00,,,0.00,Wunderground v.1.15,2013-05-04 14:20:00,
2013-05-04 07:26:00,44.8,34.5,30.07,North,9,0.0,1.0,67,0.00,,,0.00,Wunderground v.1.15,2013-05-04 14:26:00,
2013-05-04 07:31:00,46.5,34.6,30.07,North,350,1.0,2.0,63,0.00,,,0.00,Wunderground v.1.15,2013-05-04 14:31:00,
2013-05-04 07:37:00,47.8,34.6,30.07,North,350,1.0,3.0,60,0.00,,,0.00,Wunderground v.1.15,2013-05-04 14:37:00,
2013-05-04 07:44:00,49.4,34.3,30.07,NNW,342,2.0,3.0,56,0.00,,,0.00,Wunderground v.1.15,2013-05-04 14:44:00,
2013-05-04 07:49:00,50.9,34.8,30.07,NNW,333,2.0,6.0,54,0.00,,,0.00,Wunderground v.1.15,2013-05-04 14:49:00,
2013-05-04 07:55:00,51.7,34.1,30.07,WNW,294,3.0,6.0,51,0.00,,,0.00,Wunderground v.1.15,2013-05-04 14:55:00,
2013-05-04 08:02:00,52.1,34.5,30.07,WNW,296,4.0,4.0,51,0.00,,,0.00,Wunderground v.1.15,2013-05-04 15:02:00,
2013-05-04 08:08:00,52.2,34.6,30.07,WNW,296,5.0,7.0,51,0.00,,,0.00,Wunderground v.1.15,2013-05-04 15:08:00,
2013-05-04 08:13:00,52.2,33.6,30.07,WNW,300,6.0,6.0,49,0.00,,,0.00,Wunderground v.1.15,2013-05-04 15:13:00,
2013-05-04 08:19:00,52.3,34.7,30.06,WNW,292,6.0,6.0,51,0.00,,,0.00,Wunderground v.1.15,2013-05-04 15:19:00,
2013-05-04 08:26:00,52.7,35.1,30.06,WNW,294,6.0,8.0,51,0.00,,,0.00,Wunderground v.1.15,2013-05-04 15:26:00,
2013-05-04 08:31:00,53.1,35.4,30.06,NW,317,6.0,6.0,51,0.00,,,0.00,Wunderground v.1.15,2013-05-04 15:31:00,
2013-05-04 08:37:00,53.4,35.2,30.06,NW,317,5.0,7.0,50,0.00,,,0.00,Wunderground v.1.15,2013-05-04 15:37:00,
2013-05-04 08:43:00,53.9,35.2,30.05,NW,325,5.0,6.0,49,0.00,,,0.00,Wunderground v.1.15,2013-05-04 15:43:00,
2013-05-04 08:50:00,54.2,34.9,30.05,NW,320,5.0,8.0,48,0.00,,,0.00,Wunderground v.1.15,2013-05-04 15:50:00,
2013-05-04 08:55:00,54.5,35.2,30.05,NW,321,5.0,8.0,48,0.00,,,0.00,Wunderground v.1.15,2013-05-04 15:55:00,
2013-05-04 09:01:00,54.8,34.4,30.05,NNW,331,5.0,5.0,46,0.00,,,0.00,Wunderground v.1.15,2013-05-04 16:01:00,
2013-05-04 09:07:00,55.6,36.2,30.05,NNW,334,4.0,5.0,48,0.00,,,0.00,Wunderground v.1.15,2013-05-04 16:07:00,
2013-05-04 09:14:00,56.4,36.4,30.05,NNW,346,4.0,7.0,47,0.00,,,0.00,Wunderground v.1.15,2013-05-04 16:14:00,
2013-05-04 09:19:00,56.9,35.8,30.05,NNW,345,4.0,7.0,45,0.00,,,0.00,Wunderground v.1.15,2013-05-04 16:19:00,
2013-05-04 09:25:00,57.2,36.6,30.05,NNW,343,5.0,10.0,46,0.00,,,0.00,Wunderground v.1.15,2013-05-04 16:25:00,
2013-05-04 09:32:00,57.9,36.7,30.05,North,360,4.0,7.0,45,0.00,,,0.00,Wunderground v.1.15,2013-05-04 16:32:00,
2013-05-04 09:38:00,58.3,36.5,30.04,NNW,344,3.0,7.0,44,0.00,,,0.00,Wunderground v.1.15,2013-05-04 16:38:00,
2013-05-04 09:43:00,58.3,35.9,30.04,NNW,343,4.0,6.0,43,0.00,,,0.00,Wunderground v.1.15,2013-05-04 16:43:00,
2013-05-04 09:49:00,58.5,36.1,30.03,NNW,336,5.0,6.0,43,0.00,,,0.00,Wunderground v.1.15,2013-05-04 16:49:00,
2013-05-04 09:56:00,59.2,36.7,30.03,North,9,5.0,9.0,43,0.00,,,0.00,Wunderground v.1.15,2013-05-04 16:56:00,
2013-05-04 10:01:00,59.6,35.9,30.02,North,351,7.0,7.0,41,0.00,,,0.00,Wunderground v.1.15,2013-05-04 17:01:00,
2013-05-04 10:07:00,59.3,36.8,30.02,NW,321,7.0,9.0,43,0.00,,,0.00,Wunderground v.1.15,2013-05-04 17:07:00,
2013-05-04 10:13:00,59.6,36.5,30.02,North,355,6.0,7.0,42,0.00,,,0.00,Wunderground v.1.15,2013-05-04 17:13:00,
2013-05-04 10:20:00,60.0,36.2,30.02,WNW,288,6.0,7.0,41,0.00,,,0.00,Wunderground v.1.15,2013-05-04 17:20:00,
2013-05-04 10:25:00,61.2,36.0,30.02,NNW,336,4.0,7.0,39,0.00,,,0.00,Wunderground v.1.15,2013-05-04 17:25:00,
2013-05-04 10:31:00,60.5,36.0,30.02,NNW,333,6.0,6.0,40,0.00,,,0.00,Wunderground v.1.15,2013-05-04 17:31:00,
2013-05-04 10:38:00,60.5,36.7,30.02,NNW,331,7.0,8.0,41,0.00,,,0.00,Wunderground v.1.15,2013-05-04 17:38:00,
2013-05-04 10:43:00,60.5,36.0,30.02,NE,38,7.0,7.0,40,0.00,,,0.00,Wunderground v.1.15,2013-05-04 17:43:00,
2013-05-04 10:49:00,61.7,35.8,30.01,NNE,26,7.0,7.0,38,0.00,,,0.00,Wunderground v.1.15,2013-05-04 17:49:00,
2013-05-04 10:55:00,62.9,36.2,30.01,NNW,346,5.0,7.0,37,0.00,,,0.00,Wunderground v.1.15,2013-05-04 17:55:00,
2013-05-04 11:02:00,63.1,35.7,30.00,East,79,6.0,6.0,36,0.00,,,0.00,Wunderground v.1.15,2013-05-04 18:02:00,
2013-05-04 11:07:00,63.4,32.2,30.00,NNE,27,7.0,13.0,31,0.00,,,0.00,Wunderground v.1.15,2013-05-04 18:07:00,
2013-05-04 11:13:00,63.5,32.3,30.00,NE,54,9.0,13.0,31,0.00,,,0.00,Wunderground v.1.15,2013-05-04 18:13:00,
2013-05-04 11:20:00,64.3,33.0,30.00,WNW,302,8.0,13.0,31,0.00,,,0.00,Wunderground v.1.15,2013-05-04 18:20:00,
2013-05-04 11:26:00,64.5,34.0,29.99,NE,42,7.0,15.0,32,0.00,,,0.00,Wunderground v.1.15,2013-05-04 18:26:00,
2013-05-04 11:31:00,65.5,33.2,30.00,North,360,7.0,23.0,30,0.00,,,0.00,Wunderground v.1.15,2013-05-04 18:31:00,
2013-05-04 11:37:00,65.0,31.9,29.99,East,82,9.0,23.0,29,0.00,,,0.00,Wunderground v.1.15,2013-05-04 18:37:00,
2013-05-04 11:44:00,64.6,30.7,29.99,NE,42,10.0,13.0,28,0.00,,,0.00,Wunderground v.1.15,2013-05-04 18:44:00,
2013-05-04 11:49:00,65.0,31.9,30.00,East,82,9.0,13.0,29,0.00,,,0.00,Wunderground v.1.15,2013-05-04 18:49:00,
2013-05-04 11:55:00,65.2,33.0,29.99,East,86,7.0,11.0,30,0.00,,,0.00,Wunderground v.1.15,2013-05-04 18:55:00,
2013-05-04 12:02:00,65.2,33.0,29.99,NNE,19,8.0,16.0,30,0.00,,,0.00,Wunderground v.1.15,2013-05-04 19:02:00,
2013-05-04 12:08:00,65.0,32.8,29.99,NE,39,8.0,16.0,30,0.00,,,0.00,Wunderground v.1.15,2013-05-04 19:08:00,
2013-05-04 12:13:00,64.8,34.2,29.98,North,9,8.0,14.0,32,0.00,,,0.00,Wunderground v.1.15,2013-05-04 19:13:00,
2013-05-04 12:19:00,64.5,34.0,29.97,NE,55,10.0,14.0,32,0.00,,,0.00,Wunderground v.1.15,2013-05-04 19:19:00,
2013-05-04 12:26:00,65.3,33.9,29.96,NNW,341,10.0,10.0,31,0.00,,,0.00,Wunderground v.1.15,2013-05-04 19:26:00,
2013-05-04 12:31:00,65.7,34.2,29.97,ESE,112,9.0,9.0,31,0.00,,,0.00,Wunderground v.1.15,2013-05-04 19:31:00,
2013-05-04 12:37:00,66.2,33.8,29.96,NNE,24,8.0,9.0,30,0.00,,,0.00,Wunderground v.1.15,2013-05-04 19:37:00,
2013-05-04 12:44:00,66.5,33.2,29.97,NNE,19,8.0,8.0,29,0.00,,,0.00,Wunderground v.1.15,2013-05-04 19:44:00,
2013-05-04 12:50:00,65.9,32.7,29.96,ENE,71,8.0,14.0,29,0.00,,,0.00,Wunderground v.1.15,2013-05-04 19:50:00,
2013-05-04 12:55:00,66.0,35.3,29.97,North,11,8.0,9.0,32,0.00,,,0.00,Wunderground v.1.15,2013-05-04 19:55:00,
2013-05-04 13:01:00,66.6,35.0,29.97,NE,56,8.0,8.0,31,0.00,,,0.00,Wunderground v.1.15,2013-05-04 20:01:00,
2013-05-04 13:07:00,66.1,35.4,29.97,NNE,28,8.0,11.0,32,0.00,,,0.00,Wunderground v.1.15,2013-05-04 20:07:00,
2013-05-04 13:14:00,66.8,34.3,29.97,NNE,14,8.0,8.0,30,0.00,,,0.00,Wunderground v.1.15,2013-05-04 20:14:00,
2013-05-04 13:19:00,67.0,32.8,29.96,ENE,57,7.0,10.0,28,0.00,,,0.00,Wunderground v.1.15,2013-05-04 20:19:00,
2013-05-04 13:25:00,65.9,32.7,29.96,ENE,71,7.0,14.0,29,0.00,,,0.00,Wunderground v.1.15,2013-05-04 20:25:00,
2013-05-04 13:32:00,65.9,33.6,29.95,NNE,13,8.0,10.0,30,0.00,,,0.00,Wunderground v.1.15,2013-05-04 20:32:00,
2013-05-04 13:38:00,67.0,33.7,29.95,NE,55,8.0,13.0,29,0.00,,,0.00,Wunderground v.1.15,2013-05-04 20:38:00,
2013-05-04 13:43:00,67.4,33.1,29.94,NE,37,8.0,8.0,28,0.00,,,0.00,Wunderground v.1.15,2013-05-04 20:43:00,
2013-05-04 13:49:00,67.9,34.4,29.94,ENE,71,7.0,8.0,29,0.00,,,0.00,Wunderground v.1.15,2013-05-04 20:49:00,
2013-05-04 13:55:00,67.7,34.3,29.94,North,355,7.0,8.0,29,0.00,,,0.00,Wunderground v.1.15,2013-05-04 20:55:00,
2013-05-04 14:01:00,67.6,35.0,29.93,North,351,8.0,8.0,30,0.00,,,0.00,Wunderground v.1.15,2013-05-04 21:01:00,
2013-05-04 14:07:00,67.9,34.4,29.93,NNE,12,8.0,8.0,29,0.00,,,0.00,Wunderground v.1.15,2013-05-04 21:07:00,
2013-05-04 14:14:00,68.4,34.9,29.93,NE,39,7.0,12.0,29,0.00,,,0.00,Wunderground v.1.15,2013-05-04 21:14:00,
2013-05-04 14:20:00,68.9,34.4,29.92,East,96,8.0,12.0,28,0.00,,,0.00,Wunderground v.1.15,2013-05-04 21:20:00,
2013-05-04 14:25:00,68.4,34.0,29.93,ENE,69,10.0,11.0,28,0.00,,,0.00,Wunderground v.1.15,2013-05-04 21:25:00,
2013-05-04 14:31:00,68.6,35.1,29.92,ENE,63,9.0,12.0,29,0.00,,,0.00,Wunderground v.1.15,2013-05-04 21:31:00,
2013-05-04 14:38:00,68.2,33.8,29.92,NE,35,10.0,14.0,28,0.00,,,0.00,Wunderground v.1.15,2013-05-04 21:38:00,
2013-05-04 14:43:00,68.3,33.9,29.93,NNE,21,9.0,10.0,28,0.00,,,0.00,Wunderground v.1.15,2013-05-04 21:43:00,
2013-05-04 14:49:00,68.6,35.1,29.92,ENE,61,7.0,14.0,29,0.00,,,0.00,Wunderground v.1.15,2013-05-04 21:49:00,
2013-05-04 14:56:00,68.4,34.0,29.92,NNE,13,8.0,14.0,28,0.00,,,0.00,Wunderground v.1.15,2013-05-04 21:56:00,
2013-05-04 15:02:00,68.3,33.9,29.92,NE,41,9.0,9.0,28,0.00,,,0.00,Wunderground v.1.15,2013-05-04 22:02:00,
2013-05-04 15:07:00,69.1,33.7,29.92,NE,55,8.0,9.0,27,0.00,,,0.00,Wunderground v.1.15,2013-05-04 22:07:00,
2013-05-04 15:13:00,69.2,33.8,29.92,SE,129,8.0,8.0,27,0.00,,,0.00,Wunderground v.1.15,2013-05-04 22:13:00,
2013-05-04 15:20:00,68.9,33.5,29.91,NNE,24,7.0,9.0,27,0.00,,,0.00,Wunderground v.1.15,2013-05-04 22:20:00,
2013-05-04 15:25:00,69.4,34.9,29.91,NNE,30,6.0,9.0,28,0.00,,,0.00,Wunderground v.1.15,2013-05-04 22:25:00,
2013-05-04 15:31:00,69.0,33.6,29.91,East,79,10.0,10.0,27,0.00,,,0.00,Wunderground v.1.15,2013-05-04 22:31:00,
2013-05-04 15:37:00,68.7,34.3,29.91,ENE,69,10.0,10.0,28,0.00,,,0.00,Wunderground v.1.15,2013-05-04 22:37:00,
2013-05-04 15:44:00,68.5,34.1,29.90,NNE,22,7.0,10.0,28,0.00,,,0.00,Wunderground v.1.15,2013-05-04 22:44:00,
2013-05-04 15:49:00,69.3,33.9,29.90,NE,35,7.0,11.0,27,0.00,,,0.00,Wunderground v.1.15,2013-05-04 22:49:00,
2013-05-04 15:55:00,69.6,34.1,29.89,NE,55,7.0,7.0,27,0.00,,,0.00,Wunderground v.1.15,2013-05-04 22:55:00,
2013-05-04 16:01:00,69.5,34.0,29.89,NE,53,8.0,8.0,27,0.00,,,0.00,Wunderground v.1.15,2013-05-04 23:01:00,
2013-05-04 16:08:00,69.0,33.6,29.90,ENE,65,8.0,9.0,27,0.00,,,0.00,Wunderground v.1.15,2013-05-04 23:08:00,
2013-05-04 16:13:00,69.0,34.5,29.89,ESE,109,6.0,9.0,28,0.00,,,0.00,Wunderground v.1.15,2013-05-04 23:13:00,
2013-05-04 16:19:00,69.5,34.0,29.89,East,82,7.0,11.0,27,0.00,,,0.00,Wunderground v.1.15,2013-05-04 23:19:00,
2013-05-04 16:26:00,69.5,33.1,29.89,ENE,67,6.0,7.0,26,0.00,,,0.00,Wunderground v.1.15,2013-05-04 23:26:00,
2013-05-04 16:31:00,68.9,32.6,29.89,NE,48,6.0,7.0,26,0.00,,,0.00,Wunderground v.1.15,2013-05-04 23:31:00,
2013-05-04 16:37:00,68.7,33.3,29.89,NNE,26,8.0,14.0,27,0.00,,,0.00,Wunderground v.1.15,2013-05-04 23:37:00,
2013-05-04 16:43:00,68.7,32.4,29.88,ENE,69,8.0,8.0,26,0.00,,,0.00,Wunderground v.1.15,2013-05-04 23:43:00,
2013-05-04 16:50:00,68.4,33.1,29.88,NE,40,7.0,10.0,27,0.00,,,0.00,Wunderground v.1.15,2013-05-04 23:50:00,
2013-05-04 16:55:00,69.0,32.7,29.88,East,88,7.0,7.0,26,0.00,,,0.00,Wunderground v.1.15,2013-05-04 23:55:00,
2013-05-04 17:01:00,68.5,33.2,29.88,NE,51,7.0,7.0,27,0.00,,,0.00,Wunderground v.1.15,2013-05-05 00:01:00,
2013-05-04 17:07:00,68.2,32.0,29.88,ENE,65,7.0,9.0,26,0.00,,,0.00,Wunderground v.1.15,2013-05-05 00:07:00,
2013-05-04 17:14:00,68.4,33.1,29.87,East,84,7.0,8.0,27,0.00,,,0.00,Wunderground v.1.15,2013-05-05 00:14:00,
2013-05-04 17:19:00,68.6,33.3,29.88,NE,53,7.0,11.0,27,0.00,,,0.00,Wunderground v.1.15,2013-05-05 00:19:00,
2013-05-04 17:25:00,68.6,32.3,29.88,NE,43,7.0,9.0,26,0.00,,,0.00,Wunderground v.1.15,2013-05-05 00:25:00,
2013-05-04 17:32:00,68.3,32.1,29.88,NE,47,7.0,7.0,26,0.00,,,0.00,Wunderground v.1.15,2013-05-05 00:32:00,
2013-05-04 17:37:00,67.8,32.6,29.87,NNE,24,7.0,7.0,27,0.00,,,0.00,Wunderground v.1.15,2013-05-05 00:37:00,
2013-05-04 17:43:00,67.8,31.6,29.87,ENE,61,6.0,14.0,26,0.00,,,0.00,Wunderground v.1.15,2013-05-05 00:43:00,
2013-05-04 17:49:00,67.7,31.6,29.87,ENE,65,8.0,14.0,26,0.00,,,0.00,Wunderground v.1.15,2013-05-05 00:49:00,
2013-05-04 17:56:00,67.6,32.4,29.87,NE,50,7.0,9.0,27,0.00,,,0.00,Wunderground v.1.15,2013-05-05 00:56:00,
2013-05-04 18:01:00,67.6,32.4,29.87,NE,50,7.0,7.0,27,0.00,,,0.00,Wunderground v.1.15,2013-05-05 01:01:00,
2013-05-04 18:07:00,67.6,31.5,29.87,NE,40,6.0,7.0,26,0.00,,,0.00,Wunderground v.1.15,2013-05-05 01:07:00,
2013-05-04 18:14:00,67.5,31.4,29.87,NE,49,6.0,15.0,26,0.00,,,0.00,Wunderground v.1.15,2013-05-05 01:14:00,
2013-05-04 18:20:00,67.0,31.0,29.87,ESE,109,7.0,15.0,26,0.00,,,0.00,Wunderground v.1.15,2013-05-05 01:20:00,
2013-05-04 18:25:00,66.5,31.5,29.87,East,83,8.0,9.0,27,0.00,,,0.00,Wunderground v.1.15,2013-05-05 01:25:00,
2013-05-04 18:31:00,66.2,31.2,29.87,NE,55,9.0,9.0,27,0.00,,,0.00,Wunderground v.1.15,2013-05-05 01:31:00,
2013-05-04 18:38:00,66.1,31.1,29.87,East,84,8.0,17.0,27,0.00,,,0.00,Wunderground v.1.15,2013-05-05 01:38:00,
2013-05-04 18:43:00,66.0,31.0,29.86,East,88,6.0,7.0,27,0.00,,,0.00,Wunderground v.1.15,2013-05-05 01:43:00,
2013-05-04 18:49:00,65.9,30.9,29.86,ENE,70,5.0,7.0,27,0.00,,,0.00,Wunderground v.1.15,2013-05-05 01:49:00,
2013-05-04 18:56:00,65.5,31.5,29.86,ENE,73,6.0,6.0,28,0.00,,,0.00,Wunderground v.1.15,2013-05-05 01:56:00,
2013-05-04 19:02:00,65.3,31.3,29.86,NE,39,6.0,6.0,28,0.00,,,0.00,Wunderground v.1.15,2013-05-05 02:02:00,
2013-05-04 19:07:00,65.1,31.2,29.86,NE,38,6.0,8.0,28,0.00,,,0.00,Wunderground v.1.15,2013-05-05 02:07:00,
2013-05-04 19:13:00,64.9,31.0,29.86,ENE,61,6.0,6.0,28,0.00,,,0.00,Wunderground v.1.15,2013-05-05 02:13:00,
2013-05-04 19:20:00,64.7,30.8,29.86,ENE,57,6.0,9.0,28,0.00,,,0.00,Wunderground v.1.15,2013-05-05 02:20:00,
2013-05-04 19:25:00,64.5,30.6,29.87,NNE,31,4.0,10.0,28,0.00,,,0.00,Wunderground v.1.15,2013-05-05 02:25:00,
2013-05-04 19:31:00,64.1,30.3,29.87,North,355,5.0,5.0,28,0.00,,,0.00,Wunderground v.1.15,2013-05-05 02:31:00,
2013-05-04 19:38:00,63.8,30.9,29.87,NE,39,5.0,6.0,29,0.00,,,0.00,Wunderground v.1.15,2013-05-05 02:38:00,
2013-05-04 19:44:00,63.5,30.6,29.87,NNE,17,4.0,13.0,29,0.00,,,0.00,Wunderground v.1.15,2013-05-05 02:44:00,
2013-05-04 19:49:00,63.2,30.4,29.87,NNE,15,4.0,13.0,29,0.00,,,0.00,Wunderground v.1.15,2013-05-05 02:49:00,
2013-05-04 19:55:00,62.9,31.0,29.88,ENE,59,3.0,6.0,30,0.00,,,0.00,Wunderground v.1.15,2013-05-05 02:55:00,
2013-05-04 20:01:00,62.5,31.4,29.88,NE,45,2.0,6.0,31,0.00,,,0.00,Wunderground v.1.15,2013-05-05 03:01:00,
2013-05-04 20:08:00,62.0,31.0,29.88,NNE,28,1.0,6.0,31,0.00,,,0.00,Wunderground v.1.15,2013-05-05 03:08:00,
2013-05-04 20:13:00,61.4,31.3,29.88,NE,44,1.0,1.0,32,0.00,,,0.00,Wunderground v.1.15,2013-05-05 03:13:00,
2013-05-04 20:19:00,60.9,30.8,29.88,NE,49,1.0,1.0,32,0.00,,,0.00,Wunderground v.1.15,2013-05-05 03:19:00,
2013-05-04 20:26:00,60.5,31.2,29.88,NE,44,1.0,2.0,33,0.00,,,0.00,Wunderground v.1.15,2013-05-05 03:26:00,
2013-05-04 20:32:00,60.0,31.5,29.88,NE,41,1.0,1.0,34,0.00,,,0.00,Wunderground v.1.15,2013-05-05 03:32:00,
2013-05-04 20:37:00,59.7,31.3,29.88,NE,54,1.0,2.0,34,0.00,,,0.00,Wunderground v.1.15,2013-05-05 03:37:00,
2013-05-04 20:43:00,59.6,31.2,29.88,NE,34,2.0,2.0,34,0.00,,,0.00,Wunderground v.1.15,2013-05-05 03:43:00,
2013-05-04 20:50:00,59.3,30.9,29.88,NNE,14,1.0,4.0,34,0.00,,,0.00,Wunderground v.1.15,2013-05-05 03:50:00,
2013-05-04 20:55:00,58.8,31.2,29.88,North,11,1.0,2.0,35,0.00,,,0.00,Wunderground v.1.15,2013-05-05 03:55:00,
2013-05-04 21:01:00,58.5,31.6,29.88,NNE,20,2.0,2.0,36,0.00,,,0.00,Wunderground v.1.15,2013-05-05 04:01:00,
2013-05-04 21:03:00,58.4,31.5,29.88,NNE,19,2.0,3.0,36,0.00,,,0.00,Wunderground v.1.15,2013-05-05 04:03:00,
2013-05-04 21:10:00,58.1,31.3,29.88,NNE,32,2.0,4.0,36,0.00,,,0.00,Wunderground v.1.15,2013-05-05 04:10:00,
2013-05-04 21:12:00,58.0,31.2,29.88,NNE,32,2.0,2.0,36,0.00,,,0.00,Wunderground v.1.15,2013-05-05 04:12:00,
2013-05-04 21:14:00,57.9,31.1,29.88,NNE,32,1.0,4.0,36,0.00,,,0.00,Wunderground v.1.15,2013-05-05 04:14:00,
2013-05-04 21:19:00,57.7,31.6,29.89,NNE,13,2.0,4.0,37,0.00,,,0.00,Wunderground v.1.15,2013-05-05 04:19:00,
2013-05-04 21:25:00,57.5,31.4,29.89,NNE,28,2.0,6.0,37,0.00,,,0.00,Wunderground v.1.15,2013-05-05 04:25:00,
2013-05-04 21:30:00,57.5,31.4,29.89,NNE,22,2.0,6.0,37,0.00,,,0.00,Wunderground v.1.15,2013-05-05 04:30:00,
2013-05-04 21:36:00,57.2,31.1,29.89,NNE,22,2.0,3.0,37,0.00,,,0.00,Wunderground v.1.15,2013-05-05 04:36:00,
2013-05-04 21:41:00,56.9,31.5,29.89,NNE,14,1.0,1.0,38,0.00,,,0.00,Wunderground v.1.15,2013-05-05 04:41:00,
2013-05-04 21:47:00,56.7,31.4,29.89,NNE,18,1.0,2.0,38,0.00,,,0.00,Wunderground v.1.15,2013-05-05 04:47:00,
2013-05-04 21:53:00,56.5,31.8,29.89,NNE,18,1.0,2.0,39,0.00,,,0.00,Wunderground v.1.15,2013-05-05 04:53:00,
2013-05-04 22:02:00,56.3,31.6,29.89,NNE,19,2.0,2.0,39,0.00,,,0.00,Wunderground v.1.15,2013-05-05 05:02:00,
2013-05-04 22:07:00,56.0,32.0,29.89,NNE,19,1.0,2.0,40,0.00,,,0.00,Wunderground v.1.15,2013-05-05 05:07:00,
2013-05-04 22:13:00,55.9,31.9,29.88,NNE,19,2.0,4.0,40,0.00,,,0.00,Wunderground v.1.15,2013-05-05 05:13:00,
2013-05-04 22:20:00,55.8,31.8,29.89,NNE,17,2.0,4.0,40,0.00,,,0.00,Wunderground v.1.15,2013-05-05 05:20:00,
2013-05-04 22:25:00,55.7,31.7,29.89,NNE,17,1.0,2.0,40,0.00,,,0.00,Wunderground v.1.15,2013-05-05 05:25:00,
2013-05-04 22:31:00,55.7,31.7,29.89,NNE,17,1.0,1.0,40,0.00,,,0.00,Wunderground v.1.15,2013-05-05 05:31:00,
2013-05-04 22:38:00,55.5,32.2,29.89,NNE,17,1.0,1.0,41,0.00,,,0.00,Wunderground v.1.15,2013-05-05 05:38:00,
2013-05-04 22:44:00,55.3,32.6,29.89,NNE,17,0.0,0.0,42,0.00,,,0.00,Wunderground v.1.15,2013-05-05 05:44:00,
2013-05-04 22:49:00,54.8,32.1,29.89,NNE,17,0.0,1.0,42,0.00,,,0.00,Wunderground v.1.15,2013-05-05 05:49:00,
2013-05-04 22:55:00,54.4,31.8,29.89,NNE,17,1.0,2.0,42,0.00,,,0.00,Wunderground v.1.15,2013-05-05 05:55:00,
2013-05-04 23:02:00,54.4,31.8,29.88,NNE,17,1.0,1.0,42,0.00,,,0.00,Wunderground v.1.15,2013-05-05 06:02:00,
2013-05-04 23:07:00,54.0,32.0,29.88,NNE,17,0.0,1.0,43,0.00,,,0.00,Wunderground v.1.15,2013-05-05 06:07:00,
2013-05-04 23:13:00,53.6,31.6,29.88,NNE,17,0.0,1.0,43,0.00,,,0.00,Wunderground v.1.15,2013-05-05 06:13:00,
2013-05-04 23:20:00,53.4,32.0,29.88,NNE,17,0.0,1.0,44,0.00,,,0.00,Wunderground v.1.15,2013-05-05 06:20:00,
2013-05-04 23:26:00,53.4,32.0,29.88,NNE,17,1.0,2.0,44,0.00,,,0.00,Wunderground v.1.15,2013-05-05 06:26:00,
2013-05-04 23:31:00,53.4,32.0,29.88,NNE,17,1.0,2.0,44,0.00,,,0.00,Wunderground v.1.15,2013-05-05 06:31:00,
2013-05-04 23:37:00,53.0,31.6,29.88,NNE,17,1.0,2.0,44,0.00,,,0.00,Wunderground v.1.15,2013-05-05 06:37:00,
2013-05-04 23:44:00,52.6,31.3,29.88,NNE,17,1.0,1.0,44,0.00,,,0.00,Wunderground v.1.15,2013-05-05 06:44:00,
2013-05-04 23:49:00,52.4,31.1,29.88,NNE,17,1.0,1.0,44,0.00,,,0.00,Wunderground v.1.15,2013-05-05 06:49:00,
2013-05-04 23:55:00,52.3,31.6,29.88,NNE,17,1.0,2.0,45,0.00,,,0.00,Wunderground v.1.15,2013-05-05 06:55:00,